Time;durP1;ratioP1;P1;durP2;ratioP2;P2;SDS_P1;SDS_P2;PMS_P1;PMS_P2;Temp;Humidity;BMP_temperature;BMP_pressure;BME280_temperature;BME280_humidity;BME280_pressure;Samples;Min_cycle;Max_cycle;Signal;HPM_P1;HPM_P2
2023/02/03 00:01:08;;;;;;;6.20;1.77;;;;;;;;;;5109212;28;20048;-74
2023/02/03 00:03:40;;;;;;;4.50;1.92;;;;;;;;;;5108986;28;20055;-79
2023/02/03 00:06:11;;;;;;;9.13;2.33;;;;;;;;;;5109525;28;20058;-77
2023/02/03 00:08:41;;;;;;;6.50;2.13;;;;;;;;;;5109457;28;20079;-75
2023/02/03 00:11:11;;;;;;;4.55;1.85;;;;;;;;;;5109340;28;20050;-76
2023/02/03 00:13:42;;;;;;;8.70;2.63;;;;;;;;;;5107052;28;20047;-77
2023/02/03 00:16:13;;;;;;;6.32;1.90;;;;;;;;;;5109140;28;20055;-77
2023/02/03 00:18:44;;;;;;;5.10;1.52;;;;;;;;;;5108752;28;20050;-74
2023/02/03 00:21:15;;;;;;;5.22;1.75;;;;;;;;;;5108576;28;20055;-76
2023/02/03 00:23:45;;;;;;;3.63;2.22;;;;;;;;;;5108643;28;20050;-75
2023/02/03 00:26:17;;;;;;;4.72;1.50;;;;;;;;;;5108687;28;20071;-76
2023/02/03 00:28:48;;;;;;;4.20;1.73;;;;;;;;;;5107896;28;20082;-75
2023/02/03 00:31:21;;;;;;;6.00;1.70;;;;;;;;;;5109127;28;20058;-76
2023/02/03 00:33:57;;;;;;;2.13;1.60;;;;;;;;;;5107062;28;20433;-77
2023/02/03 00:36:29;;;;;;;3.45;1.60;;;;;;;;;;5108720;28;20054;-77
2023/02/03 00:39:01;;;;;;;3.35;1.55;;;;;;;;;;5108450;28;20039;-76
2023/02/03 00:41:33;;;;;;;7.25;1.85;;;;;;;;;;5106649;28;20055;-75
2023/02/03 00:44:03;;;;;;;5.13;1.73;;;;;;;;;;5107985;28;20568;-76
2023/02/03 00:46:37;;;;;;;3.05;1.42;;;;;;;;;;5107047;28;20047;-75
2023/02/03 00:49:08;;;;;;;6.72;1.85;;;;;;;;;;5106731;28;20053;-77
2023/02/03 00:51:39;;;;;;;4.97;1.60;;;;;;;;;;5108526;28;20048;-76
2023/02/03 00:54:10;;;;;;;5.97;2.30;;;;;;;;;;5106246;28;20059;-75
2023/02/03 00:56:42;;;;;;;5.97;1.50;;;;;;;;;;5108225;28;20043;-75
2023/02/03 00:59:13;;;;;;;7.93;2.00;;;;;;;;;;5107295;28;20052;-75
2023/02/03 01:01:43;;;;;;;6.60;2.08;;;;;;;;;;5107883;28;20058;-74
2023/02/03 01:04:13;;;;;;;6.30;1.80;;;;;;;;;;5108988;28;20044;-78
2023/02/03 01:06:43;;;;;;;2.70;1.60;;;;;;;;;;5106516;28;20409;-76
2023/02/03 01:09:14;;;;;;;2.75;1.60;;;;;;;;;;5106174;28;20413;-78
2023/02/03 01:11:44;;;;;;;7.35;1.60;;;;;;;;;;5107636;28;20048;-76
2023/02/03 01:14:15;;;;;;;4.10;1.80;;;;;;;;;;5107232;28;20043;-76
2023/02/03 01:16:45;;;;;;;5.80;2.30;;;;;;;;;;5105442;28;20052;-75
2023/02/03 01:19:17;;;;;;;7.70;1.67;;;;;;;;;;5108309;28;20051;-74
2023/02/03 01:21:47;;;;;;;2.22;1.77;;;;;;;;;;5105830;28;20047;-74
2023/02/03 01:24:17;;;;;;;3.47;1.83;;;;;;;;;;5105901;28;20063;-77
2023/02/03 01:26:48;;;;;;;4.75;1.98;;;;;;;;;;5107814;28;20693;-76
2023/02/03 01:29:18;;;;;;;6.78;1.90;;;;;;;;;;5107564;28;20074;-75
2023/02/03 01:31:51;;;;;;;9.85;2.08;;;;;;;;;;5106429;28;20055;-78
2023/02/03 01:34:21;;;;;;;4.68;2.00;;;;;;;;;;5107709;28;20052;-75
2023/02/03 01:36:51;;;;;;;2.80;1.80;;;;;;;;;;5107518;28;20051;-74
2023/02/03 01:39:25;;;;;;;5.75;2.25;;;;;;;;;;5106113;28;20051;-76
2023/02/03 01:41:56;;;;;;;6.57;2.55;;;;;;;;;;5108106;28;20409;-75
2023/02/03 01:44:46;;;;;;;4.47;2.20;;;;;;;;;;5107174;28;20046;-74
2023/02/03 01:47:37;;;;;;;3.35;2.00;;;;;;;;;;5106885;28;20039;-76
2023/02/03 01:50:37;;;;;;;3.33;1.65;;;;;;;;;;5107333;28;20048;-76
2023/02/03 01:53:11;;;;;;;8.07;1.58;;;;;;;;;;5107130;28;20048;-76
2023/02/03 01:55:46;;;;;;;2.50;1.63;;;;;;;;;;5107289;28;20055;-79
2023/02/03 01:58:23;;;;;;;6.90;1.70;;;;;;;;;;5115189;27;20055;-77
2023/02/03 02:00:56;;;;;;;4.00;1.80;;;;;;;;;;5111532;27;20505;-78
2023/02/03 02:03:52;;;;;;;3.72;2.10;;;;;;;;;;5117901;27;20062;-75
2023/02/03 02:06:23;;;;;;;3.63;1.70;;;;;;;;;;5116952;27;20055;-75
2023/02/03 02:08:54;;;;;;;8.07;1.73;;;;;;;;;;5114364;28;20040;-75
2023/02/03 02:11:25;;;;;;;3.58;1.75;;;;;;;;;;5113927;28;20048;-76
2023/02/03 02:14:01;;;;;;;3.28;1.80;;;;;;;;;;5117029;28;20050;-77
2023/02/03 02:16:57;;;;;;;4.60;1.65;;;;;;;;;;5112970;28;20051;-74
2023/02/03 02:20:06;;;;;;;3.53;1.50;;;;;;;;;;5115661;28;20043;-77
2023/02/03 02:23:03;;;;;;;2.78;1.67;;;;;;;;;;5106078;28;20039;-77
2023/02/03 02:26:06;;;;;;;4.00;2.15;;;;;;;;;;5103930;28;20067;-75
2023/02/03 02:29:06;;;;;;;5.82;1.98;;;;;;;;;;5106640;28;20542;-73
2023/02/03 02:32:11;;;;;;;5.97;2.00;;;;;;;;;;5105122;28;20157;-75
2023/02/03 02:35:24;;;;;;;3.38;1.60;;;;;;;;;;5075110;28;20051;-77
2023/02/03 02:38:08;;;;;;;5.00;1.85;;;;;;;;;;5023384;28;20432;-76
2023/02/03 02:41:00;;;;;;;6.15;1.63;;;;;;;;;;5098331;28;20506;-74
2023/02/03 02:43:46;;;;;;;4.03;1.50;;;;;;;;;;5106994;28;20496;-74
2023/02/03 02:46:32;;;;;;;3.47;1.60;;;;;;;;;;5104950;28;20047;-74
2023/02/03 02:49:13;;;;;;;4.50;2.00;;;;;;;;;;5106951;28;20063;-74
2023/02/03 02:51:47;;;;;;;3.38;1.60;;;;;;;;;;5105201;28;20398;-76
2023/02/03 02:54:23;;;;;;;4.63;1.73;;;;;;;;;;5105225;28;20619;-75
2023/02/03 02:56:57;;;;;;;3.78;1.80;;;;;;;;;;5106751;28;20443;-74
2023/02/03 02:59:29;;;;;;;;;;;;;;;;;;5105277;28;20051;-74
2023/02/03 03:02:00;;;;;;;7.00;1.65;;;;;;;;;;5105199;28;19924;-75
2023/02/03 03:04:33;;;;;;;2.05;1.63;;;;;;;;;;5104623;28;20556;-76
2023/02/03 03:07:15;;;;;;;3.67;1.80;;;;;;;;;;5107531;28;20051;-75
2023/02/03 03:09:55;;;;;;;6.07;1.80;;;;;;;;;;5108288;28;20059;-76
2023/02/03 03:12:33;;;;;;;3.55;1.77;;;;;;;;;;5108527;28;20782;-74
2023/02/03 03:15:08;;;;;;;5.43;1.52;;;;;;;;;;5091409;28;20055;-77
2023/02/03 03:17:46;;;;;;;2.45;1.48;;;;;;;;;;5108127;28;20070;-76
2023/02/03 03:20:23;;;;;;;2.75;1.42;;;;;;;;;;5107626;28;20051;-74
2023/02/03 03:23:19;;;;;;;2.55;1.67;;;;;;;;;;5107833;28;20058;-74
2023/02/03 03:26:03;;;;;;;4.28;1.55;;;;;;;;;;5109849;28;20522;-74
2023/02/03 03:28:52;;;;;;;4.05;1.40;;;;;;;;;;5110191;28;20430;-74
2023/02/03 03:31:23;;;;;;;;;;;;;;;;;;5110581;28;20487;-74
2023/02/03 03:33:54;;;;;;;3.78;1.50;;;;;;;;;;5109681;28;19928;-74
2023/02/03 03:36:32;;;;;;;7.28;1.70;;;;;;;;;;5108722;28;20064;-75
2023/02/03 03:39:22;;;;;;;5.63;1.67;;;;;;;;;;5110070;28;20052;-74
2023/02/03 03:42:06;;;;;;;2.85;1.52;;;;;;;;;;5110037;28;20043;-74
2023/02/03 03:44:44;;;;;;;2.85;1.60;;;;;;;;;;5109907;28;20039;-75
2023/02/03 03:47:49;;;;;;;2.83;1.85;;;;;;;;;;5109572;28;20048;-75
2023/02/03 03:50:24;;;;;;;3.47;1.80;;;;;;;;;;5109477;28;20043;-75
2023/02/03 03:52:59;;;;;;;2.97;1.52;;;;;;;;;;5108932;28;20406;-75
2023/02/03 03:55:32;;;;;;;3.75;1.75;;;;;;;;;;5109190;28;20051;-74
2023/02/03 03:58:06;;;;;;;7.55;2.20;;;;;;;;;;5109465;28;20051;-75
2023/02/03 04:00:39;;;;;;;11.85;2.20;;;;;;;;;;5109490;28;20502;-75
2023/02/03 04:03:16;;;;;;;3.97;1.50;;;;;;;;;;5110124;28;20051;-75
2023/02/03 04:05:47;;;;;;;3.65;1.63;;;;;;;;;;5109808;28;20067;-75
2023/02/03 04:08:17;;;;;;;4.03;1.52;;;;;;;;;;5109262;28;20039;-75
2023/02/03 04:10:48;;;;;;;4.65;2.05;;;;;;;;;;5109590;28;20069;-75
2023/02/03 04:13:19;;;;;;;5.82;2.28;;;;;;;;;;5108803;28;20048;-75
2023/02/03 04:15:50;;;;;;;5.25;1.58;;;;;;;;;;5109375;28;21063;-75
2023/02/03 04:18:19;;;;;;;9.18;1.92;;;;;;;;;;5108279;28;21151;-75
2023/02/03 04:20:50;;;;;;;6.07;1.80;;;;;;;;;;5108680;28;20059;-75
2023/02/03 04:23:21;;;;;;;4.88;1.90;;;;;;;;;;5108950;28;20043;-75
2023/02/03 04:25:52;;;;;;;3.67;1.80;;;;;;;;;;5107164;28;20051;-75
2023/02/03 04:28:22;;;;;;;2.67;1.70;;;;;;;;;;5109041;28;20044;-75
2023/02/03 04:30:53;;;;;;;2.70;1.80;;;;;;;;;;5108939;28;20548;-75
2023/02/03 04:33:23;;;;;;;5.78;2.03;;;;;;;;;;5108794;28;20058;-75
2023/02/03 04:35:54;;;;;;;4.38;1.80;;;;;;;;;;5108486;28;20059;-75
2023/02/03 04:38:24;;;;;;;4.80;2.00;;;;;;;;;;5108445;28;20062;-75
2023/02/03 04:40:54;;;;;;;3.60;1.70;;;;;;;;;;5108120;28;20386;-75
2023/02/03 04:43:25;;;;;;;5.47;1.80;;;;;;;;;;5108787;28;20044;-75
2023/02/03 04:45:59;;;;;;;4.03;1.58;;;;;;;;;;5108309;28;20047;-75
2023/02/03 04:48:29;;;;;;;3.63;1.42;;;;;;;;;;5108686;28;20681;-75
2023/02/03 04:51:08;;;;;;;5.07;1.75;;;;;;;;;;5106886;28;20047;-74
2023/02/03 04:53:39;;;;;;;5.78;1.70;;;;;;;;;;5108766;28;20048;-75
2023/02/03 04:56:11;;;;;;;8.43;1.90;;;;;;;;;;5108180;28;20044;-75
2023/02/03 04:58:41;;;;;;;3.55;1.60;;;;;;;;;;5108422;28;20524;-75
2023/02/03 05:01:11;;;;;;;3.55;1.80;;;;;;;;;;5108649;28;20585;-75
2023/02/03 05:03:41;;;;;;;4.05;1.90;;;;;;;;;;5108142;28;20502;-75
2023/02/03 05:06:11;;;;;;;7.07;1.60;;;;;;;;;;5107910;28;20044;-75
2023/02/03 05:08:43;;;;;;;3.78;2.05;;;;;;;;;;5108033;28;20051;-75
2023/02/03 05:11:14;;;;;;;4.40;2.28;;;;;;;;;;5107802;28;20525;-75
2023/02/03 05:13:44;;;;;;;6.13;2.03;;;;;;;;;;5108053;28;20516;-75
2023/02/03 05:16:14;;;;;;;4.68;1.85;;;;;;;;;;5108314;28;20048;-75
2023/02/03 05:18:45;;;;;;;4.53;2.20;;;;;;;;;;5108646;28;20044;-74
2023/02/03 05:21:15;;;;;;;3.72;1.83;;;;;;;;;;5108131;28;20047;-75
2023/02/03 05:23:45;;;;;;;4.30;2.03;;;;;;;;;;5108116;28;20044;-74
2023/02/03 05:26:18;;;;;;;4.80;2.42;;;;;;;;;;5107447;28;20047;-75
2023/02/03 05:28:49;;;;;;;4.07;1.92;;;;;;;;;;5107261;28;20494;-75
2023/02/03 05:31:21;;;;;;;4.88;1.98;;;;;;;;;;5107431;28;20051;-75
2023/02/03 05:33:52;;;;;;;8.70;2.03;;;;;;;;;;5107156;28;20048;-75
2023/02/03 05:36:23;;;;;;;10.32;2.95;;;;;;;;;;5107081;28;20050;-75
2023/02/03 05:38:52;;;;;;;6.82;2.53;;;;;;;;;;5107297;28;20047;-75
2023/02/03 05:44:13;;;;;;;3.95;1.92;;;;;;;;;;5107622;28;20578;-75
2023/02/03 05:46:44;;;;;;;3.67;1.77;;;;;;;;;;5107167;28;20043;-74
2023/02/03 05:49:14;;;;;;;5.28;2.13;;;;;;;;;;5106540;28;20047;-75
2023/02/03 05:51:45;;;;;;;5.72;2.53;;;;;;;;;;5107138;28;20043;-75
2023/02/03 05:54:16;;;;;;;6.35;2.05;;;;;;;;;;5107514;28;20403;-75
2023/02/03 05:56:48;;;;;;;4.10;1.98;;;;;;;;;;5107465;28;20047;-75
2023/02/03 05:59:19;;;;;;;4.75;2.67;;;;;;;;;;5107135;28;20055;-75
2023/02/03 06:01:50;;;;;;;4.50;2.10;;;;;;;;;;5107692;28;20047;-75
2023/02/03 06:04:20;;;;;;;9.80;2.05;;;;;;;;;;5107509;28;20047;-75
2023/02/03 06:06:51;;;;;;;3.33;1.88;;;;;;;;;;5107027;28;20036;-75
2023/02/03 06:09:22;;;;;;;8.98;2.00;;;;;;;;;;5107415;28;20396;-75
2023/02/03 06:11:52;;;;;;;5.45;2.05;;;;;;;;;;5107274;28;20035;-75
2023/02/03 06:14:23;;;;;;;4.63;2.25;;;;;;;;;;5107034;28;20043;-75
2023/02/03 06:16:53;;;;;;;5.25;1.98;;;;;;;;;;5107192;28;20047;-75
2023/02/03 06:19:25;;;;;;;3.65;2.08;;;;;;;;;;5107113;28;20063;-75
2023/02/03 06:21:55;;;;;;;4.72;1.98;;;;;;;;;;5106856;28;20047;-75
2023/02/03 06:24:24;;;;;;;4.70;2.13;;;;;;;;;;5106794;28;20043;-75
2023/02/03 06:26:55;;;;;;;6.07;2.33;;;;;;;;;;5107716;28;20055;-75
2023/02/03 06:29:26;;;;;;;5.38;2.40;;;;;;;;;;5107141;28;20036;-75
2023/02/03 06:31:56;;;;;;;5.35;2.28;;;;;;;;;;5106982;28;20504;-75
2023/02/03 06:34:27;;;;;;;4.68;2.22;;;;;;;;;;5107199;28;20046;-74
2023/02/03 06:36:56;;;;;;;7.15;2.15;;;;;;;;;;5106783;28;20051;-75
2023/02/03 06:39:27;;;;;;;8.90;2.13;;;;;;;;;;5107018;28;20687;-75
2023/02/03 06:41:57;;;;;;;6.32;2.10;;;;;;;;;;5109748;28;20047;-77
2023/02/03 06:44:30;;;;;;;4.10;1.98;;;;;;;;;;5110953;28;20065;-75
2023/02/03 06:47:01;;;;;;;7.38;2.22;;;;;;;;;;5111121;28;20055;-75
2023/02/03 06:49:32;;;;;;;9.75;2.25;;;;;;;;;;5110990;28;20631;-74
2023/02/03 06:52:29;;;;;;;4.03;1.98;;;;;;;;;;5111099;28;20494;-75
2023/02/03 06:54:59;;;;;;;3.63;2.30;;;;;;;;;;5111022;28;20062;-75
2023/02/03 06:57:30;;;;;;;3.67;2.10;;;;;;;;;;5110487;28;20414;-75
2023/02/03 07:00:00;;;;;;;7.47;2.40;;;;;;;;;;5110063;28;20051;-75
2023/02/03 07:02:31;;;;;;;6.22;2.50;;;;;;;;;;5110514;28;20039;-75
2023/02/03 07:05:02;;;;;;;7.00;2.17;;;;;;;;;;5110404;28;20426;-75
2023/02/03 07:07:32;;;;;;;3.78;1.90;;;;;;;;;;5110611;28;20043;-75
2023/02/03 07:10:02;;;;;;;12.52;2.40;;;;;;;;;;5110266;28;20050;-75
2023/02/03 07:12:33;;;;;;;6.35;2.38;;;;;;;;;;5111094;28;20058;-75
2023/02/03 07:15:06;;;;;;;6.18;2.40;;;;;;;;;;5110418;28;20051;-75
2023/02/03 07:17:38;;;;;;;8.30;2.70;;;;;;;;;;5110070;28;20047;-75
2023/02/03 07:20:09;;;;;;;4.22;2.17;;;;;;;;;;5110337;28;20055;-74
2023/02/03 07:22:41;;;;;;;6.97;2.92;;;;;;;;;;5110134;28;20118;-75
2023/02/03 07:25:11;;;;;;;5.78;2.40;;;;;;;;;;5109890;28;20044;-74
2023/02/03 07:27:43;;;;;;;5.30;2.50;;;;;;;;;;5110070;28;20062;-75
2023/02/03 07:30:14;;;;;;;5.38;2.60;;;;;;;;;;5110369;28;20043;-75
2023/02/03 07:32:51;;;;;;;5.90;2.65;;;;;;;;;;5110094;28;20044;-74
2023/02/03 07:35:22;;;;;;;7.10;2.47;;;;;;;;;;5109743;28;20044;-75
2023/02/03 07:37:53;;;;;;;3.83;2.08;;;;;;;;;;5109572;28;20070;-74
2023/02/03 07:40:23;;;;;;;5.03;2.78;;;;;;;;;;5109652;28;20055;-74
2023/02/03 07:42:54;;;;;;;8.25;2.45;;;;;;;;;;5109584;28;20058;-75
2023/02/03 07:45:24;;;;;;;6.30;2.65;;;;;;;;;;5109622;28;20040;-75
2023/02/03 07:47:55;;;;;;;7.45;2.47;;;;;;;;;;5109615;28;20426;-75
2023/02/03 07:50:26;;;;;;;5.10;2.45;;;;;;;;;;5109758;28;20047;-75
2023/02/03 07:52:56;;;;;;;3.90;2.50;;;;;;;;;;5109521;28;20044;-75
2023/02/03 07:55:28;;;;;;;7.82;2.30;;;;;;;;;;5109380;28;20048;-75
2023/02/03 07:57:59;;;;;;;7.90;2.50;;;;;;;;;;5110040;28;20043;-75
2023/02/03 08:00:31;;;;;;;5.80;2.15;;;;;;;;;;5109076;28;20094;-75
2023/02/03 08:03:03;;;;;;;4.50;2.15;;;;;;;;;;5109386;28;20040;-75
2023/02/03 08:05:33;;;;;;;5.18;2.67;;;;;;;;;;5109287;28;20048;-75
2023/02/03 08:08:04;;;;;;;7.03;2.70;;;;;;;;;;5109272;28;20036;-75
2023/02/03 08:10:34;;;;;;;6.50;2.63;;;;;;;;;;5108914;28;20494;-76
2023/02/03 08:13:04;;;;;;;5.68;2.53;;;;;;;;;;5109048;28;20048;-77
2023/02/03 08:15:34;;;;;;;4.40;2.47;;;;;;;;;;5107967;28;20487;-75
2023/02/03 08:18:07;;;;;;;9.18;2.47;;;;;;;;;;5107761;28;20043;-75
2023/02/03 08:20:39;;;;;;;7.22;2.58;;;;;;;;;;5109274;28;20541;-75
2023/02/03 08:23:11;;;;;;;7.10;2.50;;;;;;;;;;5108498;28;20051;-75
2023/02/03 08:25:42;;;;;;;3.88;2.42;;;;;;;;;;5109201;28;20506;-75
2023/02/03 08:28:12;;;;;;;7.85;2.35;;;;;;;;;;5108854;28;20048;-75
2023/02/03 08:30:44;;;;;;;6.80;2.67;;;;;;;;;;5109020;28;20047;-75
2023/02/03 08:33:15;;;;;;;8.50;2.80;;;;;;;;;;5108979;28;20420;-75
2023/02/03 08:35:47;;;;;;;5.78;2.95;;;;;;;;;;5108406;28;20051;-75
2023/02/03 08:38:20;;;;;;;4.85;2.22;;;;;;;;;;5108759;28;20040;-75
2023/02/03 08:40:51;;;;;;;5.40;2.80;;;;;;;;;;5108956;28;20421;-76
2023/02/03 08:43:21;;;;;;;5.20;2.40;;;;;;;;;;5108768;28;20039;-75
2023/02/03 08:45:51;;;;;;;6.68;2.72;;;;;;;;;;5108124;28;20494;-75
2023/02/03 08:48:22;;;;;;;10.30;2.45;;;;;;;;;;5108109;28;20540;-76
2023/02/03 08:50:52;;;;;;;10.00;2.75;;;;;;;;;;5108290;28;20040;-75
2023/02/03 08:53:24;;;;;;;4.20;2.45;;;;;;;;;;5108374;28;20044;-75
2023/02/03 08:55:55;;;;;;;4.95;2.33;;;;;;;;;;5107212;28;20039;-76
2023/02/03 08:58:26;;;;;;;6.75;2.97;;;;;;;;;;5108500;28;20043;-77
2023/02/03 09:01:10;;;;;;;4.20;2.63;;;;;;;;;;5107767;28;20040;-77
2023/02/03 09:03:41;;;;;;;7.50;2.55;;;;;;;;;;5107358;28;20055;-79
2023/02/03 09:06:15;;;;;;;2.90;2.53;;;;;;;;;;5090931;28;20052;-76
2023/02/03 09:08:46;;;;;;;7.22;3.08;;;;;;;;;;5106284;28;20506;-75
2023/02/03 09:11:18;;;;;;;7.05;2.75;;;;;;;;;;5108086;28;20059;-75
2023/02/03 09:13:49;;;;;;;6.05;2.53;;;;;;;;;;5108115;28;20043;-76
2023/02/03 09:16:22;;;;;;;6.28;2.53;;;;;;;;;;5107707;28;20052;-76
2023/02/03 09:18:52;;;;;;;7.35;2.30;;;;;;;;;;5107904;28;20498;-76
2023/02/03 09:21:23;;;;;;;7.63;2.80;;;;;;;;;;5107780;28;20047;-76
2023/02/03 09:24:16;;;;;;;5.70;2.33;;;;;;;;;;5107905;28;20047;-76
2023/02/03 09:26:48;;;;;;;7.85;2.70;;;;;;;;;;5108043;28;20047;-75
2023/02/03 09:29:19;;;;;;;11.10;3.25;;;;;;;;;;5108898;28;20051;-74
2023/02/03 09:31:51;;;;;;;7.95;2.67;;;;;;;;;;5107794;28;20050;-76
2023/02/03 09:34:22;;;;;;;7.15;5.40;;;;;;;;;;5107408;28;20070;-75
2023/02/03 09:36:52;;;;;;;8.10;3.42;;;;;;;;;;5107369;28;20047;-75
2023/02/03 09:39:23;;;;;;;9.35;3.38;;;;;;;;;;5107985;28;20047;-75
2023/02/03 09:42:10;;;;;;;9.07;2.75;;;;;;;;;;5107086;28;20044;-75
2023/02/03 09:45:05;;;;;;;7.43;2.67;;;;;;;;;;5107687;28;20410;-75
2023/02/03 09:47:40;;;;;;;8.15;3.72;;;;;;;;;;5107634;28;20035;-75
2023/02/03 09:50:20;;;;;;;9.02;5.10;;;;;;;;;;5106081;28;20517;-75
2023/02/03 09:52:51;;;;;;;10.68;3.33;;;;;;;;;;5107624;28;20039;-75
2023/02/03 09:55:40;;;;;;;11.35;3.30;;;;;;;;;;5107558;28;20044;-76
2023/02/03 09:58:21;;;;;;;7.38;3.13;;;;;;;;;;5107409;28;20513;-75
2023/02/03 10:01:01;;;;;;;9.45;2.72;;;;;;;;;;5106927;28;20545;-76
2023/02/03 10:03:44;;;;;;;8.65;2.97;;;;;;;;;;5106876;28;20494;-77
2023/02/03 10:06:36;;;;;;;9.02;2.50;;;;;;;;;;5107392;28;20039;-76
2023/02/03 10:09:17;;;;;;;9.40;2.35;;;;;;;;;;5107669;28;20039;-76
2023/02/03 10:12:07;;;;;;;6.07;2.58;;;;;;;;;;5105055;28;20059;-76
2023/02/03 10:14:39;;;;;;;10.85;2.85;;;;;;;;;;5108915;28;20506;-75
2023/02/03 10:30:28;;;;;;;11.77;3.45;;;;;;;;;;5124612;27;20268;-76
2023/02/03 10:33:15;;;;;;;6.65;2.05;;;;;;;;;;5104545;28;20055;-76
2023/02/03 10:35:51;;;;;;;7.25;2.90;;;;;;;;;;5104466;28;20047;-76
2023/02/03 10:38:49;;;;;;;4.78;1.92;;;;;;;;;;5104072;28;20043;-76
2023/02/03 10:41:21;;;;;;;9.60;2.35;;;;;;;;;;5103516;28;20437;-79
2023/02/03 10:43:53;;;;;;;14.07;3.00;;;;;;;;;;5104624;28;20046;-76
2023/02/03 10:46:34;;;;;;;13.50;2.63;;;;;;;;;;5104684;28;20043;-76
2023/02/03 10:49:05;;;;;;;9.30;2.35;;;;;;;;;;5104316;28;20592;-76
2023/02/03 10:51:48;;;;;;;7.60;2.65;;;;;;;;;;5102737;28;20051;-77
2023/02/03 10:54:31;;;;;;;9.43;2.58;;;;;;;;;;5103732;28;20048;-76
2023/02/03 10:57:06;;;;;;;10.43;3.35;;;;;;;;;;5104128;28;20048;-76
2023/02/03 10:59:43;;;;;;;6.72;2.67;;;;;;;;;;5103576;28;20055;-76
2023/02/03 11:02:27;;;;;;;8.48;2.47;;;;;;;;;;5103797;28;20043;-77
2023/02/03 11:05:28;;;;;;;8.15;2.28;;;;;;;;;;5103615;28;20044;-76
2023/02/03 11:07:59;;;;;;;8.48;2.45;;;;;;;;;;5088809;28;20063;-76
2023/02/03 11:10:33;;;;;;;4.30;2.90;;;;;;;;;;5103422;28;20050;-76
2023/02/03 11:13:25;;;;;;;7.93;3.70;;;;;;;;;;5103515;28;20047;-76
2023/02/03 11:16:12;;;;;;;8.52;5.13;;;;;;;;;;5103391;28;20044;-75
2023/02/03 11:18:56;;;;;;;16.83;5.82;;;;;;;;;;5095254;28;20052;-75
2023/02/03 11:21:40;;;;;;;15.40;5.82;;;;;;;;;;5082790;28;20396;-76
2023/02/03 11:24:27;;;;;;;8.65;4.40;;;;;;;;;;5083100;28;20044;-75
2023/02/03 11:27:05;;;;;;;14.05;5.22;;;;;;;;;;5082652;28;20048;-76
2023/02/03 11:30:16;;;;;;;13.02;5.40;;;;;;;;;;5078565;28;20087;-76
2023/02/03 11:32:47;;;;;;;12.40;5.88;;;;;;;;;;5069270;28;20521;-76
2023/02/03 11:35:25;;;;;;;9.85;4.80;;;;;;;;;;5069187;28;20048;-75
2023/02/03 11:37:59;;;;;;;13.07;5.32;;;;;;;;;;5067719;28;20075;-75
2023/02/03 11:40:37;;;;;;;10.50;4.55;;;;;;;;;;5068799;28;20408;-75
2023/02/03 11:43:17;;;;;;;12.57;4.85;;;;;;;;;;5069603;28;20053;-75
2023/02/03 11:45:51;;;;;;;12.30;5.68;;;;;;;;;;5068968;28;20071;-75
2023/02/03 11:48:56;;;;;;;10.15;4.72;;;;;;;;;;5068679;28;20048;-78
2023/02/03 11:51:35;;;;;;;11.45;4.53;;;;;;;;;;5069050;28;20049;-75
2023/02/03 11:54:26;;;;;;;21.23;7.05;;;;;;;;;;5068812;28;20045;-74
2023/02/03 11:57:13;;;;;;;12.98;5.05;;;;;;;;;;5056466;28;20868;-75
2023/02/03 11:59:55;;;;;;;17.77;6.03;;;;;;;;;;5069001;28;20044;-75
2023/02/03 12:02:40;;;;;;;16.98;6.45;;;;;;;;;;5068570;28;20060;-75
2023/02/03 12:05:28;;;;;;;15.93;6.03;;;;;;;;;;5068179;28;20052;-76
2023/02/03 12:08:35;;;;;;;13.93;7.03;;;;;;;;;;5068937;28;20473;-81
2023/02/03 12:11:11;;;;;;;26.08;8.48;;;;;;;;;;5068888;28;20044;-78
2023/02/03 12:14:00;;;;;;;24.33;8.00;;;;;;;;;;5067935;28;20049;-77
2023/02/03 12:16:30;;;;;;;16.20;7.97;;;;;;;;;;5068663;28;20041;-75
2023/02/03 12:19:20;;;;;;;22.98;9.68;;;;;;;;;;5068696;28;20402;-76
2023/02/03 12:22:03;;;;;;;19.00;12.52;;;;;;;;;;5068704;28;20044;-75
2023/02/03 12:24:52;;;;;;;16.95;9.18;;;;;;;;;;5068208;28;20044;-78
2023/02/03 12:27:29;;;;;;;19.30;9.88;;;;;;;;;;5067123;28;20052;-79
2023/02/03 12:30:06;;;;;;;19.02;10.45;;;;;;;;;;5067774;28;20064;-76
2023/02/03 12:32:58;;;;;;;14.25;10.07;;;;;;;;;;5068518;28;20446;-78
2023/02/03 12:35:55;;;;;;;16.52;10.82;;;;;;;;;;5068000;28;20044;-76
2023/02/03 12:38:53;;;;;;;19.17;10.30;;;;;;;;;;5067840;28;20049;-77
2023/02/03 12:41:36;;;;;;;17.33;10.52;;;;;;;;;;5066584;28;20050;-76
2023/02/03 12:44:19;;;;;;;18.83;9.85;;;;;;;;;;5068954;28;20414;-76
2023/02/03 12:47:17;;;;;;;18.50;9.73;;;;;;;;;;5068042;28;20055;-76
2023/02/03 12:49:56;;;;;;;18.23;8.80;;;;;;;;;;5060905;28;20061;-76
2023/02/03 12:52:41;;;;;;;15.07;8.95;;;;;;;;;;5068056;28;20728;-76
2023/02/03 12:56:01;;;;;;;19.98;9.45;;;;;;;;;;5067389;28;20051;-76
2023/02/03 12:58:37;;;;;;;15.50;9.05;;;;;;;;;;5051544;28;20049;-75
2023/02/03 13:01:21;;;;;;;19.27;11.60;;;;;;;;;;5065816;28;20426;-75
2023/02/03 13:04:13;;;;;;;14.55;10.18;;;;;;;;;;5067125;28;20063;-75
2023/02/03 13:06:53;;;;;;;24.45;9.77;;;;;;;;;;5067526;28;20055;-80
2023/02/03 13:09:35;;;;;;;14.48;9.90;;;;;;;;;;5067245;28;20045;-75
2023/02/03 13:12:37;;;;;;;11.63;9.27;;;;;;;;;;5067609;28;20041;-75
2023/02/03 13:15:36;;;;;;;19.10;9.60;;;;;;;;;;5067738;28;20044;-74
2023/02/03 13:18:32;;;;;;;16.27;9.68;;;;;;;;;;5065773;28;21193;-75
2023/02/03 13:21:03;;;;;;;11.45;9.10;;;;;;;;;;5067284;28;20052;-75
2023/02/03 13:23:33;;;;;;;11.38;8.20;;;;;;;;;;5067248;28;20422;-75
2023/02/03 13:26:25;;;;;;;11.90;7.72;;;;;;;;;;5067338;28;20055;-75
2023/02/03 13:29:19;;;;;;;12.25;7.07;;;;;;;;;;5065003;28;20057;-75
2023/02/03 13:32:07;;;;;;;11.20;7.22;;;;;;;;;;5038879;28;20064;-75
2023/02/03 13:34:43;;;;;;;12.98;8.00;;;;;;;;;;5067465;28;20052;-75
2023/02/03 13:37:20;;;;;;;12.88;7.60;;;;;;;;;;5064687;28;20426;-77
2023/02/03 13:40:24;;;;;;;11.80;8.85;;;;;;;;;;5067216;28;20048;-76
2023/02/03 13:42:59;;;;;;;15.23;9.85;;;;;;;;;;5066857;28;20495;-75
2023/02/03 13:45:39;;;;;;;10.48;6.70;;;;;;;;;;5067140;28;20044;-76
2023/02/03 13:48:23;;;;;;;9.93;5.45;;;;;;;;;;5066753;28;20041;-75
2023/02/03 13:51:23;;;;;;;8.63;5.63;;;;;;;;;;5066940;28;20518;-76
2023/02/03 13:54:01;;;;;;;11.05;5.95;;;;;;;;;;5066481;28;20045;-75
2023/02/03 13:56:33;;;;;;;8.52;5.15;;;;;;;;;;5067006;28;20040;-76
2023/02/03 13:59:31;;;;;;;10.38;6.43;;;;;;;;;;5065937;28;20049;-76
2023/02/03 14:02:45;;;;;;;12.23;7.25;;;;;;;;;;5067156;28;20048;-75
2023/02/03 14:05:37;;;;;;;11.52;7.78;;;;;;;;;;5057762;28;20426;-80
2023/02/03 14:08:27;;;;;;;7.43;5.93;;;;;;;;;;5066310;28;20037;-75
2023/02/03 14:11:32;;;;;;;11.45;5.88;;;;;;;;;;5066875;28;20048;-75
2023/02/03 14:14:09;;;;;;;19.88;13.95;;;;;;;;;;5066435;28;20044;-75
2023/02/03 14:16:43;;;;;;;10.20;6.20;;;;;;;;;;5067044;28;20056;-79
2023/02/03 14:19:34;;;;;;;5.30;4.35;;;;;;;;;;5066372;28;20045;-76
2023/02/03 14:22:15;;;;;;;8.75;5.10;;;;;;;;;;5054190;28;20056;-75
2023/02/03 14:24:47;;;;;;;;;;;;;;;;;;5067107;28;20430;-76
2023/02/03 14:27:22;;;;;;;5.45;3.53;;;;;;;;;;5066649;28;19925;-76
2023/02/03 14:30:12;;;;;;;11.07;4.95;;;;;;;;;;5066312;28;20064;-76
2023/02/03 14:33:01;;;;;;;10.50;3.88;;;;;;;;;;5066173;28;20044;-76
2023/02/03 14:35:35;;;;;;;4.90;2.88;;;;;;;;;;5066351;28;20052;-77
2023/02/03 14:38:14;;;;;;;7.35;3.38;;;;;;;;;;5066810;28;20053;-77
2023/02/03 14:41:05;;;;;;;6.63;3.13;;;;;;;;;;5066279;28;20040;-76
2023/02/03 14:43:41;;;;;;;5.18;2.58;;;;;;;;;;5066492;28;20053;-77
2023/02/03 14:46:32;;;;;;;6.85;3.10;;;;;;;;;;5064670;28;20406;-76
2023/02/03 14:49:17;;;;;;;6.45;2.42;;;;;;;;;;5066577;28;20048;-76
2023/02/03 14:52:04;;;;;;;5.45;2.33;;;;;;;;;;5063878;28;20055;-77
2023/02/03 14:54:43;;;;;;;4.32;1.90;;;;;;;;;;5065875;28;20049;-76
2023/02/03 14:57:38;;;;;;;3.15;1.50;;;;;;;;;;5066531;28;20067;-76
2023/02/03 15:00:30;;;;;;;8.77;2.45;;;;;;;;;;5064178;28;20068;-76
2023/02/03 15:03:09;;;;;;;5.38;1.65;;;;;;;;;;5066401;28;20471;-76
2023/02/03 15:05:45;;;;;;;5.85;1.95;;;;;;;;;;5068104;28;20044;-76
2023/02/03 15:08:35;;;;;;;8.20;2.30;;;;;;;;;;5070264;28;20037;-77
2023/02/03 15:11:31;;;;;;;6.05;2.45;;;;;;;;;;5070088;28;20056;-76
2023/02/03 15:14:19;;;;;;;17.13;10.30;;;;;;;;;;5070020;28;20047;-76
2023/02/03 15:17:01;;;;;;;8.40;3.10;;;;;;;;;;5068253;28;20059;-77
2023/02/03 15:19:34;;;;;;;4.97;3.08;;;;;;;;;;5069411;28;20053;-77
2023/02/03 15:22:29;;;;;;;5.55;2.15;;;;;;;;;;5070022;28;20044;-76
2023/02/03 15:25:04;;;;;;;2.83;1.73;;;;;;;;;;5069596;28;20490;-76
2023/02/03 15:27:35;;;;;;;5.63;2.05;;;;;;;;;;5069459;28;20056;-76
2023/02/03 15:30:16;;;;;;;5.30;2.08;;;;;;;;;;5069401;28;20052;-78
2023/02/03 15:32:57;;;;;;;3.50;1.73;;;;;;;;;;5069858;28;20051;-77
2023/02/03 15:35:32;;;;;;;2.95;1.83;;;;;;;;;;5069253;28;20045;-77
2023/02/03 15:38:06;;;;;;;3.38;1.75;;;;;;;;;;5069341;28;20522;-77
2023/02/03 15:40:48;;;;;;;4.90;1.73;;;;;;;;;;5069916;28;20045;-76
2023/02/03 15:43:39;;;;;;;3.40;2.17;;;;;;;;;;5068840;28;20053;-76
2023/02/03 15:46:31;;;;;;;6.15;2.00;;;;;;;;;;5068081;28;20048;-76
2023/02/03 15:49:26;;;;;;;5.03;1.70;;;;;;;;;;5069050;28;20045;-76
2023/02/03 15:52:11;;;;;;;7.28;1.73;;;;;;;;;;5068678;28;20052;-78
2023/02/03 15:54:52;;;;;;;3.22;1.63;;;;;;;;;;5069171;28;20044;-76
2023/02/03 15:57:26;;;;;;;5.30;1.77;;;;;;;;;;5068821;28;20045;-82
2023/02/03 16:00:07;;;;;;;1.63;1.45;;;;;;;;;;5068830;28;20044;-76